createdAt,value
2019-04-06T00:02:19.333Z,60.80
2019-04-06T00:04:48.092Z,53.73
2019-04-06T00:07:16.990Z,59.20
2019-04-06T00:09:45.767Z,57.85
2019-04-06T00:12:14.586Z,58.37
2019-04-06T00:14:43.400Z,63.30
2019-04-06T00:17:12.161Z,56.67
2019-04-06T00:19:40.898Z,57.43
2019-04-06T00:22:09.741Z,57.87
2019-04-06T00:24:38.503Z,56.13
2019-04-06T00:27:07.274Z,62.77
2019-04-06T00:29:36.031Z,57.60
2019-04-06T00:32:16.890Z,59.17
2019-04-06T00:34:45.634Z,51.23
2019-04-06T00:37:14.386Z,59.90
2019-04-06T00:39:43.134Z,58.90
2019-04-06T00:42:11.898Z,55.70
2019-04-06T00:44:40.650Z,63.03
2019-04-06T00:47:09.480Z,62.13
2019-04-06T00:49:38.296Z,57.03
2019-04-06T00:52:08.363Z,57.88
2019-04-06T00:54:37.108Z,54.77
2019-04-06T00:57:05.873Z,59.67
2019-04-06T00:59:34.642Z,60.43
2019-04-06T01:02:04.268Z,60.80
2019-04-06T01:04:33.045Z,58.68
2019-04-06T01:07:02.078Z,58.87
2019-04-06T01:09:31.085Z,63.17
2019-04-06T01:12:00.062Z,61.63
2019-04-06T01:14:29.226Z,70.33
2019-04-06T01:16:57.987Z,75.67
2019-04-06T01:19:26.732Z,78.93
2019-04-06T01:21:55.558Z,77.53
2019-04-06T01:24:24.305Z,76.50
2019-04-06T01:26:53.051Z,83.00
2019-04-06T01:29:21.960Z,80.80
2019-04-06T01:31:50.701Z,86.03
2019-04-06T01:34:19.460Z,78.57
2019-04-06T01:36:48.210Z,81.17
2019-04-06T01:39:16.986Z,73.77
2019-04-06T01:41:45.730Z,84.83
2019-04-06T01:44:14.645Z,80.47
2019-04-06T01:46:43.435Z,85.13
2019-04-06T01:49:12.184Z,83.40
2019-04-06T01:51:40.939Z,88.60
2019-04-06T01:54:09.698Z,82.57
2019-04-06T01:56:38.458Z,85.20
2019-04-06T01:59:07.229Z,78.13
2019-04-06T02:01:43.135Z,87.77
2019-04-06T02:04:11.903Z,83.80
2019-04-06T02:06:40.723Z,89.47
2019-04-06T02:09:09.511Z,90.07
2019-04-06T02:11:38.417Z,90.37
2019-04-06T02:14:07.193Z,95.23
2019-04-06T02:16:35.958Z,106.87
2019-04-06T02:19:04.807Z,105.73
2019-04-06T02:21:33.553Z,106.97
2019-04-06T02:24:02.318Z,108.80
2019-04-06T02:26:31.313Z,113.97
2019-04-06T02:29:00.294Z,114.83
2019-04-06T02:31:47.139Z,112.28
2019-04-06T02:34:37.765Z,102.23
2019-04-06T02:37:15.453Z,149.30
2019-04-06T02:40:12.197Z,110.57
2019-04-06T02:42:46.110Z,109.17
2019-04-06T02:45:14.965Z,152.27
2019-04-06T02:47:44.203Z,117.50
2019-04-06T02:50:13.334Z,176.97
2019-04-06T02:52:42.141Z,159.20
2019-04-06T02:55:11.319Z,175.50
2019-04-06T02:57:40.070Z,136.70
2019-04-06T03:00:10.171Z,310.27
2019-04-06T03:02:39.019Z,226.50
2019-04-06T03:05:08.604Z,218.67
2019-04-06T03:07:37.659Z,115.70
2019-04-06T03:10:06.891Z,144.87
2019-04-06T03:12:35.951Z,150.27
2019-04-06T03:15:05.772Z,144.65
2019-04-06T03:17:34.579Z,124.23
2019-04-06T03:20:03.562Z,134.70
2019-04-06T03:22:32.321Z,163.03
2019-04-06T03:25:01.282Z,162.53
2019-04-06T03:27:30.219Z,131.93
2019-04-06T03:30:00.443Z,123.97
2019-04-06T03:32:29.215Z,146.10
2019-04-06T03:34:58.004Z,164.80
2019-04-06T03:37:26.819Z,121.10
2019-04-06T03:39:55.751Z,125.17
2019-04-06T03:42:24.605Z,129.70
2019-04-06T03:44:53.358Z,134.10
2019-04-06T03:47:22.145Z,183.37
2019-04-06T03:49:50.961Z,142.33
2019-04-06T03:52:19.727Z,130.10
2019-04-06T03:54:48.469Z,179.13
2019-04-06T03:57:17.307Z,112.20
2019-04-06T03:59:46.102Z,137.20
2019-04-06T04:02:14.902Z,122.10
2019-04-06T04:04:44.434Z,121.25
2019-04-06T04:07:13.187Z,114.67
2019-04-06T04:09:41.960Z,124.90
2019-04-06T04:12:10.736Z,127.70
2019-04-06T04:14:39.496Z,121.63
2019-04-06T04:17:08.384Z,120.00
2019-04-06T04:19:37.274Z,145.57
2019-04-06T04:22:06.140Z,143.43
2019-04-06T04:24:34.984Z,110.70
2019-04-06T04:27:04.445Z,107.10
2019-04-06T04:29:33.198Z,121.27
2019-04-06T04:32:01.956Z,122.80
2019-04-06T04:34:30.748Z,114.80
2019-04-06T04:36:59.764Z,109.43
2019-04-06T04:39:28.589Z,126.20
2019-04-06T04:41:57.342Z,146.07
2019-04-06T04:44:26.196Z,120.67
2019-04-06T04:46:56.371Z,123.10
2019-04-06T04:49:25.160Z,122.23
2019-04-06T04:51:53.926Z,122.97
2019-04-06T04:54:22.680Z,130.03
2019-04-06T04:56:51.624Z,116.23
2019-04-06T04:59:20.454Z,114.90
2019-04-06T05:01:49.320Z,118.77
2019-04-06T05:04:18.402Z,129.03
2019-04-06T05:06:47.516Z,125.77
2019-04-06T05:09:16.547Z,123.67
2019-04-06T05:11:45.293Z,115.97
2019-04-06T05:14:49.953Z,124.53
2019-04-06T05:17:18.952Z,110.93
2019-04-06T05:19:47.716Z,104.37
2019-04-06T05:22:16.461Z,116.80
2019-04-06T05:24:45.232Z,125.87
2019-04-06T05:27:13.988Z,102.77
2019-04-06T05:29:42.745Z,120.47
2019-04-06T05:32:11.553Z,107.05
2019-04-06T05:34:40.425Z,100.23
2019-04-06T05:37:09.282Z,103.37
2019-04-06T05:39:38.159Z,117.90
2019-04-06T05:42:07.262Z,115.43
2019-04-06T05:44:36.046Z,110.20
2019-04-06T05:47:04.971Z,112.97
2019-04-06T05:49:33.850Z,96.57
2019-04-06T05:52:02.844Z,106.87
2019-04-06T05:54:31.836Z,99.17
2019-04-06T05:57:00.598Z,91.03
2019-04-06T05:59:29.323Z,91.47
2019-04-06T06:01:58.130Z,90.83
2019-04-06T06:04:27.055Z,85.70
2019-04-06T06:06:55.918Z,82.90
2019-04-06T06:09:24.691Z,80.97
2019-04-06T06:11:55.898Z,76.95
2019-04-06T06:14:24.869Z,67.23
2019-04-06T06:16:53.665Z,67.10
2019-04-06T06:19:22.869Z,64.87
2019-04-06T06:21:51.859Z,61.00
2019-04-06T06:24:20.597Z,67.17
2019-04-06T06:26:50.244Z,62.33
2019-04-06T06:29:19.006Z,59.30
2019-04-06T06:31:47.874Z,52.00
2019-04-06T06:34:16.645Z,56.77
2019-04-06T06:36:45.410Z,54.47
2019-04-06T06:39:14.165Z,55.92
2019-04-06T06:41:43.191Z,59.60
2019-04-06T06:44:12.114Z,55.08
2019-04-06T06:46:40.876Z,57.23
2019-04-06T06:49:09.628Z,57.13
2019-04-06T06:51:38.390Z,59.87
2019-04-06T06:54:07.529Z,61.93
2019-04-06T06:56:36.620Z,64.90
2019-04-06T06:59:05.529Z,63.27
2019-04-06T07:01:34.273Z,56.97
2019-04-06T07:04:03.020Z,57.93
2019-04-06T07:06:31.778Z,55.00
2019-04-06T07:09:00.534Z,63.07
2019-04-06T07:11:29.363Z,56.00
2019-04-06T07:13:58.139Z,54.57
2019-04-06T07:16:27.500Z,56.23
2019-04-06T07:18:56.244Z,56.60
2019-04-06T07:21:25.002Z,53.70
2019-04-06T07:23:53.741Z,52.07
2019-04-06T07:26:22.505Z,48.70
2019-04-06T07:28:51.493Z,51.83
2019-04-06T07:31:20.378Z,49.53
2019-04-06T07:33:49.149Z,51.07
2019-04-06T07:36:17.974Z,47.50
2019-04-06T07:38:46.745Z,46.37
2019-04-06T07:41:15.519Z,44.73
2019-04-06T07:43:44.288Z,44.10
2019-04-06T07:46:13.061Z,44.10
2019-04-06T07:48:41.856Z,42.47
2019-04-06T07:51:10.611Z,48.30
2019-04-06T07:53:39.503Z,44.53
2019-04-06T07:56:08.322Z,44.50
2019-04-06T07:58:48.039Z,41.57
2019-04-06T08:01:07.734Z,40.38
2019-04-06T08:03:36.494Z,39.57
2019-04-06T08:06:06.593Z,43.85
2019-04-06T08:08:35.491Z,41.43
2019-04-06T08:11:04.407Z,39.77
2019-04-06T08:13:33.343Z,39.83
2019-04-06T08:16:02.179Z,39.93
2019-04-06T08:18:30.931Z,39.30
2019-04-06T08:20:59.703Z,39.43
2019-04-06T08:23:28.670Z,33.53
2019-04-06T08:25:57.600Z,36.63
2019-04-06T08:28:26.369Z,38.10
2019-04-06T08:30:55.127Z,35.60
2019-04-06T08:33:24.502Z,32.20
2019-04-06T08:35:53.260Z,33.23
2019-04-06T08:38:22.051Z,29.40
2019-04-06T08:40:50.821Z,32.57
2019-04-06T08:43:19.594Z,33.67
2019-04-06T08:45:48.354Z,35.88
2019-04-06T08:48:17.102Z,32.53
2019-04-06T08:50:46.355Z,36.25
2019-04-06T08:53:15.257Z,30.67
2019-04-06T08:55:44.576Z,31.83
2019-04-06T08:58:13.546Z,31.93
2019-04-06T09:00:42.436Z,31.97
2019-04-06T09:03:11.353Z,30.37
2019-04-06T09:05:40.142Z,29.37
2019-04-06T09:08:08.991Z,29.85
2019-04-06T09:10:37.834Z,29.90
2019-04-06T09:13:06.724Z,26.90
2019-04-06T09:15:35.688Z,31.67
2019-04-06T09:18:04.515Z,29.40
2019-04-06T09:20:33.274Z,27.27
2019-04-06T09:23:02.108Z,30.53
2019-04-06T09:25:30.949Z,29.77
2019-04-06T09:27:59.786Z,28.13
2019-04-06T09:30:29.020Z,28.40
2019-04-06T09:32:57.818Z,26.03
2019-04-06T09:35:26.615Z,27.73
2019-04-06T09:37:55.489Z,27.23
2019-04-06T09:40:24.703Z,28.30
2019-04-06T09:42:53.714Z,25.87
2019-04-06T09:45:34.476Z,27.93
2019-04-06T09:48:12.842Z,28.87
2019-04-06T09:51:09.432Z,25.40
2019-04-06T09:54:05.522Z,26.68
2019-04-06T09:56:39.358Z,26.37
2019-04-06T09:59:40.524Z,24.93
2019-04-06T10:02:28.435Z,24.40
2019-04-06T10:05:08.881Z,24.45
2019-04-06T10:07:56.756Z,23.70
2019-04-06T10:10:53.981Z,23.10
2019-04-06T10:13:34.325Z,25.43
2019-04-06T10:16:18.109Z,23.65
2019-04-06T10:18:56.579Z,24.63
2019-04-06T10:21:49.728Z,23.80
2019-04-06T10:24:37.912Z,23.27
2019-04-06T10:27:38.094Z,24.05
2019-04-06T10:30:26.866Z,24.97
2019-04-06T10:33:27.619Z,25.07
2019-04-06T10:36:25.658Z,24.17
2019-04-06T10:39:17.124Z,23.07
2019-04-06T10:42:11.771Z,25.10
2019-04-06T10:44:50.097Z,24.93
2019-04-06T10:47:48.039Z,25.07
2019-04-06T10:50:14.903Z,29.73
2019-04-06T10:52:52.542Z,25.77
2019-04-06T10:55:40.880Z,25.70
2019-04-06T10:58:39.940Z,25.20
2019-04-06T11:01:43.401Z,27.77
2019-04-06T11:04:35.659Z,27.77
2019-04-06T11:07:12.459Z,27.23
2019-04-06T11:10:00.577Z,28.30
2019-04-06T11:12:48.488Z,30.10
2019-04-06T11:15:35.041Z,27.27
2019-04-06T11:18:32.959Z,28.27
2019-04-06T11:21:19.834Z,28.02
2019-04-06T11:23:58.197Z,28.70
2019-04-06T11:26:34.158Z,29.27
2019-04-06T11:29:22.339Z,30.07
2019-04-06T11:32:10.694Z,29.72
2019-04-06T11:34:58.936Z,28.00
2019-04-06T11:37:38.921Z,30.13
2019-04-06T11:40:28.246Z,27.75
2019-04-06T11:43:08.789Z,29.30
2019-04-06T11:45:55.307Z,27.60
2019-04-06T11:48:49.033Z,28.20
2019-04-06T11:51:42.282Z,26.97
2019-04-06T11:54:22.160Z,30.20
2019-04-06T11:57:04.775Z,27.23
2019-04-06T11:59:51.298Z,29.43
2019-04-06T12:02:36.241Z,28.33
2019-04-06T12:05:12.402Z,31.83
2019-04-06T12:08:12.517Z,28.70
2019-04-06T12:11:06.798Z,31.33
2019-04-06T12:13:47.566Z,27.98
2019-04-06T12:16:28.874Z,26.97
2019-04-06T12:19:05.119Z,27.87
2019-04-06T12:21:58.598Z,28.87
2019-04-06T12:24:45.558Z,28.73
2019-04-06T12:27:39.539Z,26.80
2019-04-06T12:30:19.236Z,30.33
2019-04-06T12:33:02.753Z,27.35
2019-04-06T12:35:50.820Z,27.70
2019-04-06T12:38:37.258Z,32.17
2019-04-06T12:41:37.237Z,31.30
2019-04-06T12:44:34.239Z,27.85
2019-04-06T12:47:13.078Z,32.00
2019-04-06T12:49:57.571Z,29.37
2019-04-06T12:53:00.354Z,29.53
2019-04-06T12:55:49.699Z,28.13
2019-04-06T12:58:28.333Z,29.47
2019-04-06T13:01:19.038Z,29.37
2019-04-06T13:04:13.121Z,29.33
2019-04-06T13:07:14.338Z,30.17
2019-04-06T13:10:04.102Z,27.57
2019-04-06T13:12:51.953Z,28.00
2019-04-06T13:15:42.221Z,27.17
2019-04-06T13:18:36.423Z,28.67
2019-04-06T13:21:24.141Z,27.97
2019-04-06T13:24:07.544Z,29.70
2019-04-06T13:27:07.723Z,27.37
2019-04-06T13:29:54.436Z,29.60
2019-04-06T13:32:42.590Z,30.20
2019-04-06T13:35:40.077Z,27.77
2019-04-06T13:38:31.708Z,28.07
2019-04-06T13:41:09.027Z,30.67
2019-04-06T13:44:03.383Z,28.17
2019-04-06T13:46:56.362Z,28.83
2019-04-06T13:49:44.506Z,29.70
2019-04-06T13:52:27.911Z,27.70
2019-04-06T13:55:07.531Z,30.77
2019-04-06T13:57:42.185Z,29.47
2019-04-06T14:00:18.305Z,28.03
2019-04-06T14:02:59.553Z,27.27
2019-04-06T14:06:05.593Z,28.27
2019-04-06T14:08:46.688Z,28.20
2019-04-06T14:11:25.033Z,27.32
2019-04-06T14:14:16.054Z,26.40
2019-04-06T14:17:10.122Z,27.03
2019-04-06T14:19:49.389Z,20.70
2019-04-06T14:25:15.055Z,20.00
2019-04-06T14:28:01.128Z,17.73
2019-04-06T14:30:48.988Z,19.27
2019-04-06T14:33:31.039Z,19.80
2019-04-06T14:36:32.314Z,18.73
2019-04-06T14:41:57.638Z,18.93
2019-04-06T14:44:48.917Z,18.13
2019-04-06T14:47:35.584Z,15.97
2019-04-06T14:50:27.406Z,17.43
2019-04-06T14:53:33.673Z,17.27
2019-04-06T14:56:36.513Z,17.53
2019-04-06T14:59:23.480Z,16.07
2019-04-06T15:02:06.048Z,19.63
2019-04-06T15:04:52.967Z,19.27
2019-04-06T15:07:42.818Z,17.07
2019-04-06T15:10:28.973Z,20.67
2019-04-06T15:13:08.302Z,18.27
2019-04-06T15:15:55.391Z,18.40
2019-04-06T15:18:42.161Z,18.47
2019-04-06T15:21:28.688Z,19.17
2019-04-06T15:24:14.430Z,17.17
2019-04-06T15:27:11.511Z,18.23
2019-04-06T15:29:53.096Z,19.37
2019-04-06T15:32:43.862Z,19.17
2019-04-06T15:35:27.254Z,18.80
2019-04-06T15:38:01.466Z,20.63
2019-04-06T15:40:47.994Z,18.77
2019-04-06T15:43:34.234Z,19.15
2019-04-06T15:46:26.796Z,18.90
2019-04-06T15:49:17.101Z,19.77
2019-04-06T15:52:10.694Z,21.23
2019-04-06T15:54:45.875Z,19.53
2019-04-06T15:57:19.393Z,20.77
2019-04-06T15:59:54.500Z,22.53
2019-04-06T16:02:33.033Z,19.25
2019-04-06T16:05:17.642Z,20.17
2019-04-06T16:08:12.185Z,21.10
2019-04-06T16:11:04.662Z,20.60
2019-04-06T16:13:42.693Z,22.30
2019-04-06T16:16:18.186Z,20.87
2019-04-06T16:18:59.684Z,21.70
2019-04-06T16:22:02.497Z,29.00
2019-04-06T16:25:04.308Z,23.70
2019-04-06T16:27:50.721Z,20.33
2019-04-06T16:30:39.246Z,21.10
2019-04-06T16:33:13.416Z,18.17
2019-04-06T16:36:00.933Z,16.42
2019-04-06T16:38:42.202Z,19.67
2019-04-06T16:41:30.075Z,16.85
2019-04-06T16:44:13.354Z,19.02
2019-04-06T16:47:10.418Z,20.27
2019-04-06T16:50:01.725Z,19.37
2019-04-06T16:52:57.834Z,17.37
2019-04-06T16:55:45.863Z,19.25
2019-04-06T16:58:28.711Z,22.00
2019-04-06T17:01:19.666Z,21.90
2019-04-06T17:04:01.216Z,19.63
2019-04-06T17:06:41.137Z,22.23
2019-04-06T17:09:20.702Z,20.27
2019-04-06T17:12:09.871Z,19.67
2019-04-06T17:15:05.187Z,17.57
2019-04-06T17:17:53.520Z,19.40
2019-04-06T17:20:40.186Z,18.80
2019-04-06T17:23:30.921Z,18.93
2019-04-06T17:26:26.100Z,17.20
2019-04-06T17:29:18.947Z,20.40
2019-04-06T17:31:52.648Z,17.70
2019-04-06T17:34:30.409Z,19.17
2019-04-06T17:37:20.232Z,19.95
2019-04-06T17:40:03.094Z,18.57
2019-04-06T17:42:39.056Z,19.77
2019-04-06T17:45:26.586Z,19.45
2019-04-06T17:48:07.516Z,17.92
2019-04-06T17:50:54.538Z,18.53
2019-04-06T17:53:41.482Z,16.63
2019-04-06T17:56:29.502Z,22.70
2019-04-06T17:59:16.920Z,16.27
2019-04-06T18:02:04.257Z,16.47
2019-04-06T18:04:52.054Z,14.97
2019-04-06T18:08:09.815Z,17.45
2019-04-06T18:11:00.171Z,16.03
2019-04-06T18:13:54.021Z,14.90
2019-04-06T18:16:25.642Z,14.73
2019-04-06T18:18:54.425Z,13.83
2019-04-06T18:21:23.598Z,14.53
2019-04-06T18:23:53.041Z,16.43
2019-04-06T18:26:21.960Z,16.97
2019-04-06T18:28:50.944Z,17.93
2019-04-06T18:31:48.320Z,15.27
2019-04-06T18:34:17.674Z,14.47
2019-04-06T18:37:09.024Z,15.03
2019-04-06T18:39:38.224Z,18.03
2019-04-06T18:42:07.460Z,13.40
2019-04-06T18:44:36.391Z,14.20
2019-04-06T18:47:05.342Z,14.27
2019-04-06T18:49:34.161Z,14.10
2019-04-06T18:52:02.955Z,14.60
2019-04-06T18:54:31.815Z,12.93
2019-04-06T18:57:00.644Z,13.97
2019-04-06T18:59:29.456Z,14.13
2019-04-06T19:01:58.860Z,14.10
2019-04-06T19:04:28.073Z,14.67
2019-04-06T19:06:57.339Z,15.70
2019-04-06T19:09:26.194Z,16.30
2019-04-06T19:11:57.071Z,18.40
2019-04-06T19:14:25.909Z,22.23
2019-04-06T19:16:54.904Z,19.13
2019-04-06T19:19:23.710Z,20.13
2019-04-06T19:21:52.480Z,28.27
2019-04-06T19:24:21.393Z,24.30
2019-04-06T19:26:50.384Z,20.67
2019-04-06T19:29:21.664Z,23.85
2019-04-06T19:31:51.556Z,27.77
2019-04-06T19:34:20.679Z,24.57
2019-04-06T19:36:50.978Z,20.67
2019-04-06T19:39:20.810Z,18.92
2019-04-06T19:41:49.919Z,19.07
2019-04-06T19:44:18.754Z,19.97
2019-04-06T19:46:47.874Z,18.03
2019-04-06T19:49:16.722Z,19.77
2019-04-06T19:51:45.509Z,20.00
2019-04-06T19:54:14.300Z,19.62
2019-04-06T19:56:43.066Z,18.37
2019-04-06T19:59:13.582Z,20.13
2019-04-06T20:01:42.679Z,19.53
2019-04-06T20:04:11.613Z,20.93
2019-04-06T20:06:40.399Z,17.47
2019-04-06T20:09:09.725Z,18.57
2019-04-06T20:11:38.489Z,16.97
2019-04-06T20:14:07.317Z,18.30
2019-04-06T20:16:36.082Z,22.43
2019-04-06T20:19:05.186Z,19.35
2019-04-06T20:21:34.127Z,19.07
2019-04-06T20:24:04.022Z,17.77
2019-04-06T20:26:33.156Z,19.60
2019-04-06T20:29:02.328Z,24.65
2019-04-06T20:31:31.541Z,18.90
2019-04-06T20:34:01.856Z,26.43
2019-04-06T20:36:30.698Z,23.93
2019-04-06T20:38:59.547Z,20.93
2019-04-06T20:41:28.412Z,20.93
2019-04-06T20:43:57.200Z,19.63
2019-04-06T20:46:25.976Z,21.17
2019-04-06T20:48:54.758Z,21.53
2019-04-06T20:51:31.652Z,20.27
2019-04-06T20:54:46.445Z,20.15
2019-04-06T20:57:11.215Z,20.90
2019-04-06T20:59:40.436Z,22.43
2019-04-06T21:02:09.518Z,20.27
2019-04-06T21:04:38.551Z,21.57
2019-04-06T21:07:07.798Z,24.70
2019-04-06T21:09:37.414Z,19.70
2019-04-06T21:14:35.043Z,22.23
2019-04-06T21:17:04.492Z,22.70
2019-04-06T21:19:33.835Z,20.65
2019-04-06T21:22:02.785Z,21.63
2019-04-06T21:24:31.744Z,22.87
2019-04-06T21:27:00.615Z,24.05
2019-04-06T21:29:29.375Z,20.90
2019-04-06T21:31:58.535Z,22.60
2019-04-06T21:34:28.042Z,20.90
2019-04-06T21:36:57.508Z,22.03
2019-04-06T21:39:26.893Z,19.93
2019-04-06T21:41:56.507Z,22.03
2019-04-06T21:44:25.591Z,17.97
2019-04-06T21:46:54.766Z,19.27
2019-04-06T21:49:24.138Z,18.93
2019-04-06T21:51:53.034Z,18.90
2019-04-06T21:54:24.225Z,19.27
2019-04-06T21:56:54.477Z,20.70
2019-04-06T21:59:24.499Z,24.95
2019-04-06T22:01:53.648Z,19.23
2019-04-06T22:04:26.241Z,19.60
2019-04-06T22:06:53.154Z,19.43
2019-04-06T22:09:22.250Z,20.27
2019-04-06T22:11:51.557Z,19.67
2019-04-06T22:14:20.360Z,18.23
2019-04-06T22:16:49.379Z,17.37
2019-04-06T22:19:18.152Z,18.87
2019-04-06T22:21:47.346Z,18.53
2019-04-06T22:24:17.115Z,19.13
2019-04-06T22:26:46.346Z,21.95
2019-04-06T22:29:15.186Z,17.77
2019-04-06T22:31:43.962Z,20.10
2019-04-06T22:34:12.734Z,20.70
2019-04-06T22:36:42.460Z,17.97
2019-04-06T22:39:11.417Z,17.53
2019-04-06T22:41:40.544Z,20.57
2019-04-06T22:44:11.083Z,17.53
2019-04-06T22:46:40.738Z,17.73
2019-04-06T22:49:09.639Z,18.27
2019-04-06T22:51:38.957Z,23.30
2019-04-06T22:54:08.112Z,18.47
2019-04-06T22:56:37.403Z,18.33
2019-04-06T22:59:06.469Z,21.30
2019-04-06T23:01:36.827Z,22.73
2019-04-06T23:04:25.961Z,19.30
2019-04-06T23:07:14.110Z,21.63
2019-04-06T23:09:43.049Z,22.17
2019-04-06T23:12:12.905Z,21.87
2019-04-06T23:14:42.110Z,20.03
2019-04-06T23:17:11.227Z,24.70
2019-04-06T23:19:40.422Z,21.57
2019-04-06T23:22:09.257Z,21.13
2019-04-06T23:24:38.604Z,23.73
2019-04-06T23:27:07.822Z,25.80
2019-04-06T23:29:37.266Z,23.25
2019-04-06T23:32:08.101Z,24.17
2019-04-06T23:34:37.530Z,24.47
2019-04-06T23:37:06.380Z,25.40
2019-04-06T23:39:35.169Z,25.13
2019-04-06T23:42:04.604Z,23.90
2019-04-06T23:44:33.878Z,25.67
2019-04-06T23:47:03.226Z,24.70
2019-04-06T23:49:32.719Z,24.80
2019-04-06T23:52:01.603Z,26.57
2019-04-06T23:54:30.384Z,25.63
2019-04-06T23:56:59.301Z,26.17
2019-04-06T23:59:28.127Z,27.37
